Millen, Georgia
Current Conditions -  °F | °C
As of 4:15 PM on Tuesday 21 Oct 2014 (Local Time) from KJYL Reporting Station
Clear Clear  
Wind Chill: 84°   Ceiling: Unl
Heat Index: 84°   Visibility: 10mi
Dew Point: 52°   Wind: 7mph
Humidity: 34%   Direction: 290°WNW
Pressure: 29.89"   Gusts: NA
Location:  32.8°N, 81.95°W
Report Text: KJYL 212015Z AUTO 29006KT 10SM CLR 29/11 A2989 RMK AO2 T02880113
Loading
Personal Weather Stations






























Interactive Weather Map
Tropical Storm Tracking
New forecast layout! Learn more

10-Day Weather Forecast

Advertisements
Track Severe Weather on mobile